Time;durP1;ratioP1;P1;durP2;ratioP2;P2;SDS_P1;SDS_P2;PMS_P1;PMS_P2;Temp;Humidity;BMP_temperature;BMP_pressure;BME280_temperature;BME280_humidity;BME280_pressure;Samples;Min_cycle;Max_cycle;Signal;HPM_P1;HPM_P2
2023/10/26 00:00:14;;;;;;;0.60;0.50;;;;;;;14.90;67.32;95382.63;4887451;28;20654;-82
2023/10/26 00:02:39;;;;;;;0.70;0.45;;;;;;;14.87;66.49;95362.28;4922970;28;20239;-83
2023/10/26 00:05:05;;;;;;;0.60;0.35;;;;;;;14.91;67.06;95386.81;4909123;28;20357;-81
2023/10/26 00:07:31;;;;;;;0.55;0.43;;;;;;;14.91;66.88;95378.94;4924206;28;20204;-84
2023/10/26 00:09:57;;;;;;;0.40;0.40;;;;;;;14.88;66.82;95374.31;4920763;28;20182;-83
2023/10/26 00:12:22;;;;;;;1.10;0.50;;;;;;;14.91;66.91;95379.69;4909232;28;20290;-82
2023/10/26 00:14:48;;;;;;;0.65;0.50;;;;;;;14.94;66.49;95378.28;4928561;28;20254;-83
2023/10/26 00:17:13;;;;;;;0.98;0.38;;;;;;;14.99;66.48;95391.22;4892111;28;20192;-81
2023/10/26 00:19:38;;;;;;;1.10;0.40;;;;;;;15.00;66.27;95392.00;4901917;28;20281;-81
2023/10/26 00:22:04;;;;;;;0.60;0.60;;;;;;;14.83;66.97;95388.38;4922193;28;20235;-82
2023/10/26 00:24:29;;;;;;;0.52;0.40;;;;;;;14.93;66.44;95387.25;4911937;28;20172;-81
2023/10/26 00:26:55;;;;;;;1.42;0.40;;;;;;;14.93;65.80;95385.38;4911126;28;20182;-82
2023/10/26 00:29:20;;;;;;;0.50;0.40;;;;;;;14.92;66.16;95389.09;4910729;28;20200;-83
2023/10/26 00:31:45;;;;;;;0.55;0.47;;;;;;;14.92;66.38;95390.94;4928324;28;20352;-80
2023/10/26 00:34:10;;;;;;;0.35;0.35;;;;;;;14.90;66.99;95393.88;4920469;28;20368;-84
2023/10/26 00:36:36;;;;;;;0.80;0.47;;;;;;;14.92;66.11;95388.31;4921970;28;20115;-85
2023/10/26 00:39:02;;;;;;;0.52;0.40;;;;;;;14.83;66.79;95392.84;4906085;28;20232;-81
2023/10/26 00:41:28;;;;;;;0.45;0.45;;;;;;;14.91;66.40;95402.53;4906417;28;20366;-84
2023/10/26 00:43:53;;;;;;;0.70;0.50;;;;;;;14.81;66.84;95401.03;4921686;28;20631;-84
2023/10/26 00:46:18;;;;;;;1.27;0.40;;;;;;;14.87;66.29;95398.97;4903305;28;20657;-83
2023/10/26 00:48:44;;;;;;;1.10;0.60;;;;;;;14.76;66.50;95401.19;4905441;28;20299;-82
2023/10/26 00:51:09;;;;;;;0.90;0.30;;;;;;;14.87;66.37;95404.97;4924339;28;20189;-83
2023/10/26 00:53:35;;;;;;;1.00;0.90;;;;;;;14.72;67.17;95403.69;4927062;28;20178;-85
2023/10/26 00:56:00;;;;;;;0.55;0.50;;;;;;;14.77;66.70;95400.88;4911112;28;20208;-83
2023/10/26 00:58:26;;;;;;;0.40;0.40;;;;;;;14.70;66.63;95412.91;4909433;28;20226;-84
2023/10/26 01:00:52;;;;;;;0.40;0.40;;;;;;;14.67;67.01;95430.03;4894834;28;20564;-81
2023/10/26 01:03:17;;;;;;;0.52;0.52;;;;;;;14.59;66.97;95421.13;4908602;28;20257;-80
2023/10/26 01:05:46;;;;;;;0.80;0.55;;;;;;;14.62;67.39;95411.88;4911579;28;20192;-82
2023/10/26 01:08:12;;;;;;;0.98;0.70;;;;;;;14.48;67.08;95417.28;4912252;28;20503;-82
2023/10/26 01:10:40;;;;;;;0.77;0.70;;;;;;;14.44;67.37;95416.34;4892196;28;20177;-81
2023/10/26 01:13:05;;;;;;;1.65;0.90;;;;;;;14.53;66.79;95417.13;4893474;28;20404;-83
2023/10/26 01:15:31;;;;;;;1.30;1.20;;;;;;;14.38;67.17;95409.75;4896210;28;20349;-83
2023/10/26 01:17:56;;;;;;;2.40;1.38;;;;;;;14.49;67.09;95437.13;4890206;28;20224;-83
2023/10/26 01:20:21;;;;;;;1.40;1.30;;;;;;;14.42;66.95;95424.50;4903505;28;20259;-81
2023/10/26 01:22:47;;;;;;;1.90;1.33;;;;;;;14.41;66.78;95417.75;4921513;28;20277;-83
2023/10/26 01:25:12;;;;;;;2.05;1.50;;;;;;;14.53;66.93;95417.13;4896466;28;20691;-84
2023/10/26 01:27:38;;;;;;;3.05;2.03;;;;;;;14.52;67.28;95433.13;4905779;28;20203;-83
2023/10/26 01:30:04;;;;;;;2.20;2.00;;;;;;;14.47;66.37;95423.59;4899225;28;20349;-81
2023/10/26 01:32:30;;;;;;;2.92;1.98;;;;;;;14.42;66.78;95431.59;4920821;28;20282;-83
2023/10/26 01:34:55;;;;;;;3.45;2.40;;;;;;;14.40;67.12;95428.53;4900829;28;20201;-84
2023/10/26 01:37:21;;;;;;;3.38;2.85;;;;;;;14.53;66.88;95429.41;4901492;28;20337;-81
2023/10/26 01:39:46;;;;;;;3.40;3.10;;;;;;;14.53;65.61;95432.81;4907453;28;20250;-85
2023/10/26 01:42:12;;;;;;;3.80;3.30;;;;;;;14.48;66.52;95419.91;4912571;28;20237;-84
2023/10/26 01:44:38;;;;;;;4.00;3.60;;;;;;;14.45;66.87;95420.53;4909235;28;20805;-82
2023/10/26 01:47:05;;;;;;;4.20;3.80;;;;;;;14.43;66.56;95428.69;4909140;28;20637;-83
2023/10/26 01:49:30;;;;;;;4.75;3.58;;;;;;;14.47;66.23;95425.44;4911400;28;20190;-83
2023/10/26 01:51:56;;;;;;;4.70;3.88;;;;;;;14.49;66.76;95431.91;4893444;28;20393;-81
2023/10/26 01:54:21;;;;;;;4.80;4.25;;;;;;;14.47;66.31;95418.34;4927278;28;20215;-82
2023/10/26 01:56:46;;;;;;;4.40;3.92;;;;;;;14.49;66.64;95433.75;4907079;28;20199;-81
2023/10/26 01:59:12;;;;;;;4.38;3.97;;;;;;;14.42;66.21;95424.50;4891464;28;20217;-81
2023/10/26 02:01:37;;;;;;;5.82;5.22;;;;;;;14.35;66.73;95429.47;4908853;28;20197;-80
2023/10/26 02:04:05;;;;;;;6.35;4.90;;;;;;;14.33;66.50;95421.16;4900005;28;20650;-83
2023/10/26 02:06:31;;;;;;;6.65;5.38;;;;;;;14.33;66.44;95429.00;4927002;28;20245;-82
2023/10/26 02:08:56;;;;;;;6.90;5.43;;;;;;;14.39;66.60;95432.22;4917497;28;20201;-83
2023/10/26 02:11:22;;;;;;;7.65;4.95;;;;;;;14.35;66.47;95426.84;4908197;28;20640;-82
2023/10/26 02:13:47;;;;;;;6.97;5.88;;;;;;;14.35;66.43;95432.09;4905755;28;20658;-80
2023/10/26 02:16:13;;;;;;;5.97;5.32;;;;;;;14.33;66.08;95418.53;4912339;28;20252;-82
2023/10/26 02:18:42;;;;;;;7.18;6.10;;;;;;;14.33;66.07;95436.88;4898414;28;20215;-81
2023/10/26 02:21:08;;;;;;;6.28;5.68;;;;;;;14.35;65.57;95436.56;4910192;28;20409;-82
2023/10/26 02:23:33;;;;;;;7.55;6.07;;;;;;;14.38;65.98;95436.69;4891380;28;20197;-82
2023/10/26 02:25:58;;;;;;;7.55;6.70;;;;;;;14.16;66.14;95419.34;4913296;28;20294;-82
2023/10/26 02:28:25;;;;;;;7.53;6.70;;;;;;;14.31;65.75;95433.00;4896933;28;20198;-83
2023/10/26 02:30:50;;;;;;;7.18;6.13;;;;;;;14.28;65.93;95437.03;4913519;28;20128;-82
2023/10/26 02:33:16;;;;;;;8.73;6.45;;;;;;;14.36;66.40;95443.31;4909956;28;20196;-81
2023/10/26 02:35:41;;;;;;;7.78;6.72;;;;;;;14.42;65.97;95440.22;4912668;28;20176;-83
2023/10/26 02:38:06;;;;;;;9.40;6.60;;;;;;;14.28;66.20;95426.56;4919822;28;20279;-82
2023/10/26 02:40:35;;;;;;;8.90;6.95;;;;;;;14.32;65.38;95422.22;4908608;28;20281;-83
2023/10/26 02:43:00;;;;;;;8.73;7.80;;;;;;;14.24;65.83;95417.78;4921821;28;20673;-82
2023/10/26 02:45:26;;;;;;;8.95;7.32;;;;;;;14.27;66.18;95430.25;4923454;28;20202;-82
2023/10/26 02:47:51;;;;;;;9.95;7.63;;;;;;;14.25;65.95;95427.16;4909571;28;20238;-81
2023/10/26 02:50:16;;;;;;;8.73;7.35;;;;;;;14.24;66.40;95421.19;4915246;28;20185;-82
2023/10/26 02:52:42;;;;;;;9.82;8.45;;;;;;;14.23;65.91;95413.63;4925971;28;20272;-83
2023/10/26 02:55:07;;;;;;;10.13;7.90;;;;;;;14.20;66.03;95427.34;4892843;28;20149;-82
2023/10/26 02:57:33;;;;;;;10.85;8.07;;;;;;;14.17;66.44;95410.41;4924758;28;20168;-82
2023/10/26 02:59:58;;;;;;;9.82;7.78;;;;;;;14.21;65.79;95413.19;4916715;28;20087;-82
2023/10/26 03:02:24;;;;;;;8.13;7.32;;;;;;;14.15;66.50;95414.41;4895459;28;20189;-82
2023/10/26 03:04:49;;;;;;;8.85;7.40;;;;;;;14.25;65.64;95419.31;4911711;28;20203;-83
2023/10/26 03:07:22;;;;;;;8.40;7.20;;;;;;;14.14;66.19;95413.66;4923179;28;20203;-82
2023/10/26 03:09:49;;;;;;;8.70;7.15;;;;;;;14.16;65.90;95408.88;4914625;28;20227;-82
2023/10/26 03:12:14;;;;;;;8.43;6.65;;;;;;;14.15;65.89;95403.94;4903099;28;20622;-81
2023/10/26 03:14:40;;;;;;;7.28;6.25;;;;;;;14.18;66.07;95419.78;4915712;28;20110;-82
2023/10/26 03:17:05;;;;;;;8.85;7.18;;;;;;;14.17;66.29;95425.31;4903603;28;20142;-82
2023/10/26 03:19:30;;;;;;;7.82;7.03;;;;;;;14.07;65.99;95404.72;4909822;28;20282;-81
2023/10/26 03:21:56;;;;;;;7.88;6.75;;;;;;;14.15;65.82;95403.94;4914227;28;20299;-82
2023/10/26 03:24:21;;;;;;;7.18;6.40;;;;;;;14.02;65.59;95379.50;4918149;28;20370;-82
2023/10/26 03:26:47;;;;;;;6.80;5.72;;;;;;;14.13;66.45;95413.94;4892888;28;20278;-82
2023/10/26 03:29:12;;;;;;;8.88;7.30;;;;;;;14.02;65.99;95393.34;4914235;28;20188;-82
2023/10/26 03:31:38;;;;;;;8.18;6.60;;;;;;;13.99;66.43;95388.72;4921049;28;20251;-82
2023/10/26 03:34:03;;;;;;;8.60;6.35;;;;;;;14.09;66.55;95397.34;4889571;28;20109;-82
2023/10/26 03:36:29;;;;;;;6.38;5.75;;;;;;;14.18;66.53;95408.56;4916193;28;20187;-82
2023/10/26 03:38:54;;;;;;;7.20;6.38;;;;;;;14.24;66.49;95404.72;4925214;28;20360;-82
2023/10/26 03:41:20;;;;;;;8.82;6.45;;;;;;;14.16;65.93;95400.25;4906895;28;21533;-81
2023/10/26 03:43:45;;;;;;;7.90;6.20;;;;;;;14.18;66.65;95400.69;4900175;28;20280;-82
2023/10/26 03:46:10;;;;;;;8.77;6.40;;;;;;;14.16;66.24;95402.88;4919327;28;20189;-82
2023/10/26 03:48:36;;;;;;;9.40;6.82;;;;;;;14.13;66.40;95411.34;4924557;28;20177;-82
2023/10/26 03:51:02;;;;;;;8.68;7.07;;;;;;;14.15;66.19;95398.69;4902110;28;20251;-81
2023/10/26 03:53:28;;;;;;;9.15;6.15;;;;;;;14.06;66.47;95393.47;4912210;28;20270;-82
2023/10/26 03:55:57;;;;;;;8.10;6.28;;;;;;;14.17;66.51;95404.38;4918857;28;20208;-81
2023/10/26 03:58:22;;;;;;;8.55;6.22;;;;;;;14.09;65.89;95405.19;4895699;28;20095;-82
2023/10/26 04:00:48;;;;;;;6.95;6.25;;;;;;;13.96;66.80;95402.41;4924244;28;20215;-82
2023/10/26 04:03:17;;;;;;;7.53;5.35;;;;;;;14.09;66.27;95402.56;4920276;28;20262;-82
2023/10/26 04:05:42;;;;;;;6.68;5.50;;;;;;;13.99;66.30;95401.81;4922083;28;20181;-82
2023/10/26 04:08:07;;;;;;;7.63;6.13;;;;;;;13.98;66.78;95405.50;4900995;28;20251;-82
2023/10/26 04:10:34;;;;;;;7.70;6.20;;;;;;;13.94;66.43;95396.72;4906921;28;20354;-82
2023/10/26 04:13:00;;;;;;;8.95;6.55;;;;;;;13.93;66.67;95403.06;4903334;28;20604;-82
2023/10/26 04:15:25;;;;;;;7.65;6.38;;;;;;;13.94;66.86;95399.34;4918045;28;20695;-83
2023/10/26 04:17:51;;;;;;;13.50;6.65;;;;;;;14.00;66.50;95400.72;4922867;28;20340;-83
2023/10/26 04:20:16;;;;;;;7.35;6.10;;;;;;;14.02;66.51;95395.19;4915269;28;20618;-82
2023/10/26 04:22:41;;;;;;;9.55;6.30;;;;;;;13.96;66.20;95397.19;4901660;28;20168;-83
2023/10/26 04:25:07;;;;;;;8.70;6.00;;;;;;;14.02;66.42;95390.72;4913940;28;20200;-82
2023/10/26 04:27:33;;;;;;;8.30;6.60;;;;;;;14.01;66.20;95394.41;4892696;28;20660;-82
2023/10/26 04:29:58;;;;;;;9.15;6.25;;;;;;;13.86;66.21;95382.59;4895235;28;20323;-82
2023/10/26 04:32:24;;;;;;;8.20;5.90;;;;;;;13.94;66.44;95394.09;4914171;28;20191;-82
2023/10/26 04:34:49;;;;;;;9.95;5.72;;;;;;;13.97;65.90;95390.88;4906650;28;20194;-82
2023/10/26 04:37:14;;;;;;;6.43;5.30;;;;;;;13.90;66.42;95389.78;4908212;28;20669;-82
2023/10/26 04:39:43;;;;;;;9.93;6.22;;;;;;;13.84;66.22;95386.56;4903714;28;20211;-83
2023/10/26 04:42:09;;;;;;;7.10;5.03;;;;;;;13.84;66.59;95387.34;4916950;28;20204;-83
2023/10/26 04:44:34;;;;;;;8.57;5.78;;;;;;;13.73;66.00;95364.44;4926516;28;20206;-82
2023/10/26 04:47:00;;;;;;;7.88;6.28;;;;;;;13.90;66.65;95390.59;4909374;28;20095;-82
2023/10/26 04:49:25;;;;;;;10.98;7.55;;;;;;;13.86;66.79;95381.81;4908536;28;20177;-82
2023/10/26 04:51:51;;;;;;;10.25;7.32;;;;;;;13.89;66.48;95388.28;4906528;28;20278;-82
2023/10/26 04:54:19;;;;;;;9.13;6.53;;;;;;;13.89;66.61;95383.03;4926390;28;20249;-82
2023/10/26 04:56:44;;;;;;;10.00;7.03;;;;;;;13.95;66.67;95387.03;4922652;28;20728;-83
2023/10/26 04:59:09;;;;;;;9.77;7.47;;;;;;;13.94;66.11;95383.63;4897876;28;20292;-83
2023/10/26 05:01:35;;;;;;;8.45;6.65;;;;;;;13.89;66.41;95381.19;4903787;28;20498;-82
2023/10/26 05:04:00;;;;;;;10.70;7.03;;;;;;;14.01;66.44;95391.03;4908290;28;20045;-82
2023/10/26 05:06:25;;;;;;;9.70;7.45;;;;;;;13.94;66.96;95388.88;4900174;28;20263;-82
2023/10/26 05:08:51;;;;;;;10.52;7.68;;;;;;;13.99;65.92;95387.97;4908313;28;20300;-82
2023/10/26 05:11:16;;;;;;;9.05;6.85;;;;;;;13.88;66.32;95377.06;4910981;28;20076;-82
2023/10/26 05:13:42;;;;;;;8.95;7.30;;;;;;;13.94;66.71;95382.88;4900357;28;20274;-82
2023/10/26 05:16:07;;;;;;;9.43;7.22;;;;;;;13.95;66.79;95371.31;4890797;28;20212;-81
2023/10/26 05:18:32;;;;;;;11.73;7.47;;;;;;;13.95;67.18;95379.16;4904479;28;20613;-81
2023/10/26 05:20:59;;;;;;;9.68;6.80;;;;;;;13.95;66.61;95377.34;4889744;28;20391;-82
2023/10/26 05:23:25;;;;;;;9.00;7.35;;;;;;;13.91;66.45;95376.41;4912307;28;20360;-81
2023/10/26 05:25:50;;;;;;;9.63;7.43;;;;;;;13.94;66.44;95370.56;4916162;28;20185;-82
2023/10/26 05:28:16;;;;;;;10.00;7.28;;;;;;;13.98;66.94;95366.25;4908338;28;20269;-82
2023/10/26 05:30:41;;;;;;;9.63;6.53;;;;;;;14.02;66.68;95372.41;4909070;28;20216;-81
2023/10/26 05:33:07;;;;;;;8.02;6.38;;;;;;;14.06;66.67;95367.31;4927635;28;20599;-81
2023/10/26 05:35:33;;;;;;;10.73;7.55;;;;;;;14.12;66.50;95366.09;4910027;28;20686;-81
2023/10/26 05:37:58;;;;;;;10.02;7.68;;;;;;;14.09;67.26;95371.94;4924251;28;20288;-81
2023/10/26 05:40:24;;;;;;;12.45;7.90;;;;;;;14.08;66.42;95369.63;4909573;28;20251;-81
2023/10/26 05:42:49;;;;;;;11.93;8.05;;;;;;;14.07;66.45;95352.38;4911147;28;20704;-81
2023/10/26 05:45:15;;;;;;;11.63;8.52;;;;;;;14.03;66.76;95347.78;4908545;28;20504;-82
2023/10/26 05:47:41;;;;;;;12.75;8.80;;;;;;;14.01;66.68;95344.69;4911166;28;20303;-84
2023/10/26 05:50:07;;;;;;;12.60;9.05;;;;;;;14.05;66.53;95345.63;4913350;28;20673;-85
2023/10/26 05:52:32;;;;;;;13.55;9.40;;;;;;;14.07;66.73;95352.38;4926027;28;20203;-84
2023/10/26 05:54:58;;;;;;;14.43;9.52;;;;;;;14.08;67.36;95356.53;4910086;28;20222;-84
2023/10/26 05:57:25;;;;;;;13.38;9.15;;;;;;;14.02;66.85;95348.84;4902866;28;20587;-82
2023/10/26 05:59:51;;;;;;;11.20;8.25;;;;;;;14.07;66.32;95347.13;4890488;28;20282;-81
2023/10/26 06:02:16;;;;;;;14.05;9.50;;;;;;;14.08;66.32;95353.91;4920095;28;20235;-82
2023/10/26 06:04:42;;;;;;;12.98;8.57;;;;;;;14.05;66.57;95348.22;4905798;28;20238;-82
2023/10/26 06:07:07;;;;;;;15.57;10.25;;;;;;;14.05;66.96;95350.06;4909012;28;20183;-82
2023/10/26 06:09:32;;;;;;;13.63;9.40;;;;;;;14.10;66.18;95352.50;4909718;28;20168;-82
2023/10/26 06:11:58;;;;;;;12.88;8.45;;;;;;;14.13;66.85;95353.75;4919928;28;20208;-82
2023/10/26 06:14:23;;;;;;;13.82;9.38;;;;;;;14.15;66.63;95354.22;4907680;28;20436;-82
2023/10/26 06:16:49;;;;;;;16.02;9.95;;;;;;;14.14;66.78;95355.31;4896206;28;20188;-84
2023/10/26 06:19:14;;;;;;;13.93;9.20;;;;;;;14.13;66.90;95343.28;4899569;28;20106;-82
2023/10/26 06:21:39;;;;;;;14.40;8.27;;;;;;;14.21;66.66;95353.72;4913736;28;20364;-82
2023/10/26 06:24:09;;;;;;;12.70;8.30;;;;;;;14.18;66.43;95345.75;4889054;28;20174;-83
2023/10/26 06:26:34;;;;;;;12.13;7.82;;;;;;;14.18;67.39;95349.13;4910152;28;20312;-83
2023/10/26 06:29:00;;;;;;;17.58;9.65;;;;;;;14.23;66.93;95353.44;4927646;28;20728;-83
2023/10/26 06:31:25;;;;;;;16.17;8.85;;;;;;;14.11;66.96;95332.38;4914767;28;20712;-83
2023/10/26 06:33:51;;;;;;;13.88;8.40;;;;;;;14.23;66.87;95348.19;4912171;28;20190;-83
2023/10/26 06:36:17;;;;;;;10.88;7.53;;;;;;;14.35;66.76;95350.91;4914175;28;20188;-82
2023/10/26 06:38:42;;;;;;;14.00;7.97;;;;;;;14.28;66.20;95342.78;4929226;28;20177;-83
2023/10/26 06:41:08;;;;;;;12.35;7.47;;;;;;;14.33;66.13;95350.47;4912162;28;20297;-82
2023/10/26 06:43:35;;;;;;;13.05;8.13;;;;;;;14.28;67.02;95355.88;4914201;28;20252;-82
2023/10/26 06:46:00;;;;;;;14.70;8.75;;;;;;;14.22;66.71;95350.06;4917206;28;20299;-83
2023/10/26 06:48:26;;;;;;;13.88;7.82;;;;;;;14.33;66.29;95345.22;4886164;28;20706;-82
2023/10/26 06:51:00;;;;;;;14.88;8.40;;;;;;;14.33;66.57;95334.75;4879300;28;20256;-82
2023/10/26 06:53:26;;;;;;;12.75;7.55;;;;;;;14.31;66.28;95347.41;4894486;28;20184;-83
2023/10/26 06:55:52;;;;;;;12.95;7.68;;;;;;;14.37;67.06;95342.75;4897314;28;20216;-82
2023/10/26 06:58:17;;;;;;;13.75;7.18;;;;;;;14.35;66.79;95343.06;4887177;28;20374;-82
2023/10/26 07:00:43;;;;;;;10.65;7.00;;;;;;;14.28;65.96;95340.16;4890124;28;20598;-82
2023/10/26 07:03:08;;;;;;;9.57;7.10;;;;;;;14.33;66.65;95344.47;4895341;28;20204;-83
2023/10/26 07:05:33;;;;;;;11.73;7.38;;;;;;;14.28;66.43;95340.16;4909404;28;20095;-82
2023/10/26 07:07:59;;;;;;;10.85;7.20;;;;;;;14.26;66.71;95334.47;4895058;28;20109;-83
2023/10/26 07:10:28;;;;;;;10.85;7.78;;;;;;;14.26;66.33;95328.47;4899376;28;20212;-83
2023/10/26 07:12:53;;;;;;;9.15;6.07;;;;;;;14.37;65.98;95330.44;4902261;28;20080;-82
2023/10/26 07:15:19;;;;;;;11.43;6.60;;;;;;;14.38;66.43;95336.44;4913568;28;20339;-82
2023/10/26 07:17:44;;;;;;;9.65;6.35;;;;;;;14.37;66.02;95325.19;4926648;28;20232;-83
2023/10/26 07:20:12;;;;;;;10.35;6.50;;;;;;;14.42;66.33;95327.63;4922782;28;20185;-82
2023/10/26 07:22:39;;;;;;;6.68;5.45;;;;;;;14.48;66.86;95316.97;4913530;28;20550;-82
2023/10/26 07:25:05;;;;;;;8.40;6.22;;;;;;;14.55;66.86;95319.91;4906274;28;20141;-83
2023/10/26 07:27:30;;;;;;;8.50;5.88;;;;;;;14.51;66.40;95303.28;4922319;28;20169;-83
2023/10/26 07:29:58;;;;;;;9.05;5.57;;;;;;;14.54;66.79;95302.66;4931240;28;20260;-83
2023/10/26 07:32:23;;;;;;;10.95;7.22;;;;;;;14.59;66.06;95316.34;4911829;28;20282;-83
2023/10/26 07:34:51;;;;;;;9.18;5.63;;;;;;;14.64;66.60;95304.94;4890349;28;20283;-81
2023/10/26 07:37:16;;;;;;;7.63;5.70;;;;;;;14.63;66.18;95315.72;4913119;28;20231;-81
2023/10/26 07:39:41;;;;;;;7.13;5.30;;;;;;;14.71;66.37;95328.03;4891718;28;20666;-82
2023/10/26 07:42:07;;;;;;;7.75;5.25;;;;;;;14.68;66.44;95320.78;4887720;28;20180;-81
2023/10/26 07:44:33;;;;;;;8.40;5.78;;;;;;;14.71;66.59;95317.53;4914001;28;20168;-81
2023/10/26 07:46:59;;;;;;;7.40;5.25;;;;;;;14.65;66.62;95319.56;4913959;28;20352;-81
2023/10/26 07:49:24;;;;;;;7.40;5.20;;;;;;;14.68;66.27;95313.69;4944188;28;20160;-81
2023/10/26 07:51:50;;;;;;;9.27;6.35;;;;;;;14.66;66.70;95310.63;4899087;28;20493;-82
2023/10/26 07:54:16;;;;;;;8.43;5.60;;;;;;;14.74;66.18;95307.19;4898475;28;20722;-81
2023/10/26 07:56:41;;;;;;;7.63;5.32;;;;;;;14.72;66.20;95291.03;4910376;28;20426;-81
2023/10/26 07:59:06;;;;;;;6.80;4.85;;;;;;;14.67;66.92;95280.75;4908312;28;20734;-82
2023/10/26 08:01:32;;;;;;;6.80;5.30;;;;;;;14.87;65.67;95299.41;4929191;28;20161;-82
2023/10/26 08:03:57;;;;;;;6.20;4.68;;;;;;;14.87;66.45;95315.13;4897265;28;20199;-82
2023/10/26 08:06:23;;;;;;;5.63;4.15;;;;;;;14.85;66.12;95306.81;4882260;28;20162;-81
2023/10/26 08:08:50;;;;;;;5.75;4.55;;;;;;;14.92;65.91;95320.94;4918956;28;20152;-81
2023/10/26 08:11:15;;;;;;;4.78;3.90;;;;;;;14.88;66.43;95316.69;4928667;28;20200;-81
2023/10/26 08:13:41;;;;;;;6.45;4.80;;;;;;;14.91;65.83;95310.81;4897273;28;20317;-81
2023/10/26 08:16:06;;;;;;;5.50;4.03;;;;;;;14.91;65.86;95303.72;4911478;28;20158;-81
2023/10/26 08:18:32;;;;;;;5.10;4.60;;;;;;;14.90;66.59;95296.16;4910192;28;20094;-81
2023/10/26 08:20:58;;;;;;;5.78;4.70;;;;;;;14.90;66.09;95315.25;4918948;28;20212;-81
2023/10/26 08:23:23;;;;;;;6.63;4.30;;;;;;;14.89;65.80;95315.56;4901149;28;20782;-81
2023/10/26 08:25:49;;;;;;;4.93;3.83;;;;;;;14.90;66.18;95320.50;4923263;28;20276;-81
2023/10/26 08:28:15;;;;;;;4.82;4.15;;;;;;;14.90;66.92;95322.38;4907021;28;20102;-81
2023/10/26 08:30:40;;;;;;;5.60;4.25;;;;;;;14.97;66.75;95343.59;4920234;28;20225;-81
2023/10/26 08:33:07;;;;;;;6.03;4.25;;;;;;;15.02;66.64;95348.66;4901320;28;20195;-82
2023/10/26 08:35:32;;;;;;;5.40;3.67;;;;;;;14.94;65.82;95354.69;4889161;28;20203;-81
2023/10/26 08:38:01;;;;;;;4.85;4.15;;;;;;;14.95;66.19;95364.13;4929285;28;20282;-81
2023/10/26 08:40:26;;;;;;;7.00;4.03;;;;;;;14.83;65.86;95367.41;4910303;28;20203;-81
2023/10/26 08:42:52;;;;;;;4.75;3.85;;;;;;;14.93;66.10;95387.25;4909644;28;20736;-81
2023/10/26 08:45:27;;;;;;;6.15;4.07;;;;;;;14.93;65.94;95382.78;4892136;28;20199;-80
2023/10/26 08:47:52;;;;;;;5.47;4.43;;;;;;;14.70;65.87;95366.56;4930119;28;20220;-81
2023/10/26 08:50:22;;;;;;;3.65;3.35;;;;;;;14.89;66.12;95391.56;4911840;28;20704;-82
2023/10/26 08:52:48;;;;;;;3.72;3.38;;;;;;;14.82;66.79;95391.28;4914985;28;20275;-81
2023/10/26 08:55:14;;;;;;;4.50;3.92;;;;;;;14.82;66.00;95386.06;4920869;28;20312;-80
2023/10/26 08:58:00;;;;;;;4.95;3.75;;;;;;;14.98;66.68;95405.41;4897357;28;20131;-81
2023/10/26 09:00:29;;;;;;;4.28;3.58;;;;;;;14.88;66.55;95390.06;4912337;28;20273;-81
2023/10/26 09:02:54;;;;;;;5.03;4.03;;;;;;;14.82;65.66;95393.91;4893100;28;20201;-82
2023/10/26 09:05:20;;;;;;;4.28;3.88;;;;;;;14.89;65.85;95402.84;4910536;28;20214;-82
2023/10/26 09:07:45;;;;;;;8.98;5.47;;;;;;;14.81;66.29;95380.06;4911151;28;20290;-82
2023/10/26 09:10:10;;;;;;;4.30;3.90;;;;;;;14.82;67.04;95391.28;4900383;28;20305;-83
2023/10/26 09:12:36;;;;;;;5.28;3.90;;;;;;;14.81;66.88;95387.91;4920423;28;20405;-82
2023/10/26 09:15:06;;;;;;;3.97;3.58;;;;;;;14.82;66.73;95368.47;4930594;28;20282;-83
2023/10/26 09:17:32;;;;;;;4.10;3.47;;;;;;;14.81;66.16;95363.56;4909873;28;20213;-83
2023/10/26 09:19:58;;;;;;;6.38;4.07;;;;;;;14.82;66.31;95365.09;4891333;28;20745;-83
2023/10/26 09:22:39;;;;;;;4.03;3.42;;;;;;;14.96;66.43;95368.28;4928074;28;20290;-82
2023/10/26 09:25:11;;;;;;;5.45;4.90;;;;;;;14.93;66.66;95361.81;4904869;28;20290;-82
2023/10/26 09:27:38;;;;;;;5.20;4.40;;;;;;;14.94;66.43;95373.84;4882353;28;20191;-82
2023/10/26 09:30:03;;;;;;;4.15;3.75;;;;;;;14.95;66.60;95364.13;4894123;28;20270;-82
2023/10/26 09:32:36;;;;;;;5.07;3.38;;;;;;;15.04;66.35;95359.59;4909635;28;20260;-81
2023/10/26 09:35:03;;;;;;;3.00;2.63;;;;;;;15.03;66.50;95352.03;4922475;28;20187;-82
2023/10/26 09:37:29;;;;;;;3.97;3.10;;;;;;;15.11;67.09;95362.50;4876660;28;20296;-83
2023/10/26 09:39:55;;;;;;;3.30;3.00;;;;;;;15.19;66.28;95366.13;4903712;28;20092;-82
2023/10/26 09:42:21;;;;;;;3.53;2.88;;;;;;;15.20;66.63;95362.44;4911567;28;20234;-81
2023/10/26 09:44:46;;;;;;;2.95;2.70;;;;;;;15.13;67.24;95349.84;4893045;28;20215;-81
2023/10/26 09:47:12;;;;;;;2.53;2.33;;;;;;;15.28;66.26;95366.06;4907559;28;20187;-82
2023/10/26 09:49:37;;;;;;;2.42;2.22;;;;;;;15.27;66.95;95356.69;4876622;28;20282;-81
2023/10/26 09:52:03;;;;;;;2.40;2.20;;;;;;;15.31;66.37;95350.47;4893459;28;20546;-82
2023/10/26 09:54:37;;;;;;;2.40;2.00;;;;;;;15.47;65.47;95344.66;4928968;28;20211;-83
2023/10/26 09:57:15;;;;;;;2.40;2.20;;;;;;;15.49;65.92;95339.84;4927255;28;20211;-83
2023/10/26 09:59:41;;;;;;;2.20;2.00;;;;;;;15.38;67.27;95342.09;4911399;28;20309;-83
2023/10/26 10:02:15;;;;;;;2.22;2.03;;;;;;;15.48;66.30;95331.22;4899966;28;20312;-83
2023/10/26 10:04:41;;;;;;;2.40;2.20;;;;;;;15.49;66.32;95332.75;4890622;28;20269;-82
2023/10/26 10:07:06;;;;;;;2.05;1.70;;;;;;;15.67;66.28;95348.34;4894927;28;20246;-83
2023/10/26 10:10:01;;;;;;;2.03;1.75;;;;;;;15.85;65.39;95352.41;4894512;28;20258;-83
2023/10/26 10:12:27;;;;;;;3.08;2.00;;;;;;;15.65;66.33;95348.69;4902633;28;20498;-82
2023/10/26 10:15:03;;;;;;;2.08;1.98;;;;;;;15.68;66.26;95345.41;4912359;28;20728;-82
2023/10/26 10:17:44;;;;;;;1.90;1.80;;;;;;;15.85;65.58;95352.41;4896482;28;20186;-82
2023/10/26 10:20:18;;;;;;;1.70;1.60;;;;;;;15.79;66.22;95345.81;4908854;28;20203;-82
2023/10/26 10:22:44;;;;;;;1.98;1.52;;;;;;;15.78;66.12;95352.16;4920391;28;20131;-82
2023/10/26 10:25:12;;;;;;;2.25;1.55;;;;;;;15.77;65.90;95360.34;4900929;28;20676;-82
2023/10/26 10:27:47;;;;;;;1.60;1.50;;;;;;;15.74;66.14;95354.59;4905992;28;20270;-82
2023/10/26 10:30:12;;;;;;;1.67;1.40;;;;;;;15.82;66.15;95358.28;4917264;28;20216;-82
2023/10/26 10:32:44;;;;;;;1.35;1.25;;;;;;;15.85;66.53;95351.63;4880788;28;20206;-82
2023/10/26 10:35:48;;;;;;;1.58;1.02;;;;;;;15.88;66.29;95348.34;4925254;28;20199;-82
2023/10/26 10:38:14;;;;;;;0.90;0.90;;;;;;;15.81;65.59;95343.63;4918686;28;20196;-82
2023/10/26 10:40:40;;;;;;;1.77;1.20;;;;;;;15.69;66.16;95338.31;4923362;28;20281;-82
2023/10/26 10:43:06;;;;;;;1.55;1.20;;;;;;;15.73;65.91;95339.97;4894055;28;20355;-83
2023/10/26 10:45:31;;;;;;;1.33;0.85;;;;;;;15.71;66.38;95339.53;4891345;28;20208;-83
2023/10/26 10:47:57;;;;;;;0.63;0.63;;;;;;;15.74;66.02;95330.22;4926046;28;20272;-82
2023/10/26 10:50:26;;;;;;;1.08;0.77;;;;;;;15.78;65.96;95318.06;4910703;28;20642;-82
2023/10/26 10:52:53;;;;;;;1.10;1.00;;;;;;;15.68;65.97;95315.81;4907670;28;20297;-83
2023/10/26 10:55:23;;;;;;;1.10;1.02;;;;;;;15.76;66.37;95314.97;4889119;28;20305;-82
2023/10/26 10:58:00;;;;;;;1.08;0.98;;;;;;;15.80;66.15;95308.00;4911848;28;20195;-83
2023/10/26 11:00:27;;;;;;;1.50;0.98;;;;;;;15.72;66.72;95309.56;4907833;28;20548;-83
2023/10/26 11:02:56;;;;;;;0.73;0.63;;;;;;;15.66;66.15;95289.09;4908226;28;20296;-83
2023/10/26 11:05:33;;;;;;;1.85;1.00;;;;;;;15.90;65.78;95291.06;4899564;28;20650;-83
2023/10/26 11:07:59;;;;;;;0.80;0.80;;;;;;;15.78;65.75;95296.28;4891272;28;20274;-83
2023/10/26 11:10:24;;;;;;;1.63;0.90;;;;;;;15.66;65.75;95278.59;4893842;28;20204;-83
2023/10/26 11:12:50;;;;;;;0.60;0.60;;;;;;;15.73;65.80;95286.75;4889618;28;20387;-84
2023/10/26 11:15:15;;;;;;;0.70;0.70;;;;;;;15.68;66.34;95279.06;4904869;28;20323;-83
2023/10/26 11:17:41;;;;;;;0.85;0.73;;;;;;;15.74;65.92;95275.88;4895618;28;20614;-83
2023/10/26 11:20:36;;;;;;;0.60;0.60;;;;;;;15.94;66.26;95278.03;4904311;28;20257;-83
2023/10/26 11:23:05;;;;;;;1.13;0.82;;;;;;;15.80;65.91;95270.47;4904986;28;20735;-83
2023/10/26 11:25:31;;;;;;;0.50;0.50;;;;;;;15.89;65.81;95274.53;4894226;28;20196;-83
2023/10/26 11:27:56;;;;;;;0.52;0.40;;;;;;;15.85;66.83;95271.03;4902843;28;20118;-83